Time;durP1;ratioP1;P1;durP2;ratioP2;P2;SDS_P1;SDS_P2;PMS_P1;PMS_P2;Temp;Humidity;BMP_temperature;BMP_pressure;BME280_temperature;BME280_humidity;BME280_pressure;Samples;Min_cycle;Max_cycle;Signal;HPM_P1;HPM_P2
2024/04/06 00:01:39;;;;;;;13.60;5.40;;;;;;;7.40;56.58;99802.73;79280;1301;3013000;-61
2024/04/06 00:04:07;;;;;;;10.80;5.10;;;;;;;7.34;56.86;99803.34;79270;1301;3013105;-62
2024/04/06 00:06:35;;;;;;;11.40;6.20;;;;;;;7.34;56.93;99801.60;77904;1299;3069146;-62
2024/04/06 00:09:02;;;;;;;11.70;7.00;;;;;;;7.37;56.63;99799.91;79490;1299;3020700;-61
2024/04/06 00:11:29;;;;;;;10.50;5.20;;;;;;;7.39;56.57;99797.20;79221;1299;3012031;-62
2024/04/06 00:13:57;;;;;;;10.00;6.10;;;;;;;7.37;56.47;99794.48;78021;1298;3052437;-62
2024/04/06 00:16:24;;;;;;;12.70;5.40;;;;;;;7.42;56.30;99795.70;79096;1301;3013334;-62
2024/04/06 00:18:51;;;;;;;7.90;5.30;;;;;;;7.41;56.11;99793.30;79301;1301;3012865;-62
2024/04/06 00:21:19;;;;;;;6.80;4.00;;;;;;;7.29;56.68;99795.54;78001;1301;3028211;-62
2024/04/06 00:23:46;;;;;;;10.40;4.10;;;;;;;7.36;56.21;99788.79;79103;1298;3013132;-59
2024/04/06 00:26:13;;;;;;;5.90;3.60;;;;;;;7.33;56.41;99791.02;79295;1301;3011842;-60
2024/04/06 00:28:42;;;;;;;5.30;3.30;;;;;;;7.33;56.32;99791.35;78110;1301;3025369;-61
2024/04/06 00:31:08;;;;;;;10.30;4.10;;;;;;;7.38;56.05;99786.44;79413;1307;3013497;-61
2024/04/06 00:33:35;;;;;;;5.50;3.80;;;;;;;7.38;55.91;99789.05;79368;1301;3013461;-60
2024/04/06 00:36:04;;;;;;;6.30;3.80;;;;;;;7.35;55.90;99787.98;78022;1302;3069036;-60
2024/04/06 00:38:30;;;;;;;6.30;3.30;;;;;;;7.27;56.45;99784.48;79154;1299;3013741;-59
2024/04/06 00:40:57;;;;;;;9.70;4.10;;;;;;;7.36;55.94;99786.71;79202;1297;3011835;-60
2024/04/06 00:43:27;;;;;;;6.40;3.70;;;;;;;7.37;55.78;99782.85;78109;1298;3052685;-58
2024/04/06 00:45:53;;;;;;;4.50;2.90;;;;;;;7.32;56.18;99784.62;79114;1304;3013252;-60
2024/04/06 00:48:20;;;;;;;5.20;3.10;;;;;;;7.35;55.85;99783.24;79381;1301;3011647;-60
2024/04/06 00:50:49;;;;;;;7.30;3.70;;;;;;;7.30;56.09;99787.13;77977;1299;3068335;-58
2024/04/06 00:53:16;;;;;;;9.90;3.80;;;;;;;7.23;56.46;99779.23;79278;1301;3013125;-59
2024/04/06 00:55:43;;;;;;;6.70;5.00;;;;;;;7.18;56.54;99782.22;79259;1301;3013118;-60
2024/04/06 00:58:11;;;;;;;6.00;4.00;;;;;;;7.22;56.47;99781.38;77907;1301;3053284;-59
2024/04/06 01:00:38;;;;;;;10.50;7.00;;;;;;;7.23;56.35;99780.82;79064;1304;3013356;-60
2024/04/06 01:03:04;;;;;;;6.80;4.50;;;;;;;7.22;56.42;99778.59;79289;1298;3011631;-62
2024/04/06 01:05:32;;;;;;;5.90;3.60;;;;;;;7.19;56.69;99777.66;78045;1301;3028360;-62
2024/04/06 01:07:59;;;;;;;4.50;2.90;;;;;;;7.19;56.49;99781.31;79394;1301;3013273;-62
2024/04/06 01:10:26;;;;;;;4.50;2.60;;;;;;;7.17;56.61;99783.64;79674;1301;3013257;-63
2024/04/06 01:12:54;;;;;;;5.10;2.70;;;;;;;7.08;57.28;99778.64;78220;1301;3052186;-62
2024/04/06 01:15:21;;;;;;;7.40;3.40;;;;;;;7.11;57.12;99775.89;79526;1301;3012837;-62
2024/04/06 01:17:51;;;;;;;6.60;5.10;;;;;;;7.13;57.06;99771.46;79513;1302;3011399;-62
2024/04/06 01:20:19;;;;;;;7.00;3.90;;;;;;;7.17;56.96;99771.66;78061;1301;3068840;-62
2024/04/06 01:22:46;;;;;;;6.10;3.10;;;;;;;7.11;57.17;99778.84;79219;1301;3013218;-62
2024/04/06 01:25:13;;;;;;;7.50;3.30;;;;;;;7.11;57.06;99780.43;79163;1304;3011930;-62
2024/04/06 01:27:41;;;;;;;4.30;2.60;;;;;;;7.14;57.11;99780.80;77984;1299;3053297;-62
2024/04/06 01:30:09;;;;;;;4.80;2.90;;;;;;;7.25;56.45;99777.42;79231;1320;3012791;-62
2024/04/06 01:32:36;;;;;;;5.80;3.20;;;;;;;7.23;56.81;99780.81;79237;1301;3011540;-61
2024/04/06 01:35:05;;;;;;;4.80;3.10;;;;;;;7.23;56.52;99782.18;78085;1301;3068068;-63
2024/04/06 01:39:11;;;;;;;6.90;3.20;;;;;;;7.30;56.60;99778.60;80299;1305;3013966;-63
2024/04/06 01:41:38;;;;;;;10.00;4.30;;;;;;;7.33;56.40;99773.41;79307;1307;3013027;-62
2024/04/06 01:44:05;;;;;;;15.00;6.30;;;;;;;7.26;56.62;99768.98;79088;1301;3011886;-62
2024/04/06 01:46:33;;;;;;;31.30;10.20;;;;;;;7.18;57.10;99772.99;78211;1301;3051860;-63
2024/04/06 01:49:00;;;;;;;32.20;11.10;;;;;;;7.16;57.50;99774.30;79308;1301;3013437;-62
2024/04/06 01:51:27;;;;;;;24.10;10.30;;;;;;;7.12;57.65;99770.61;79094;1298;3011762;-62
2024/04/06 01:53:54;;;;;;;20.50;7.80;;;;;;;7.13;57.82;99773.39;78004;1300;3025349;-63
2024/04/06 01:56:21;;;;;;;15.90;5.80;;;;;;;7.09;57.98;99773.73;79608;1300;3013472;-61
2024/04/06 01:58:48;;;;;;;15.50;5.80;;;;;;;7.11;58.12;99771.02;79462;1296;3013232;-61
2024/04/06 02:01:16;;;;;;;12.90;5.20;;;;;;;7.08;58.20;99775.66;78711;1294;3028790;-65
2024/04/06 02:03:43;;;;;;;10.70;5.00;;;;;;;7.09;58.28;99778.06;79630;1299;3013460;-62
2024/04/06 02:06:09;;;;;;;11.90;4.80;;;;;;;7.07;58.35;99781.83;79397;1300;3013557;-62
2024/04/06 02:08:39;;;;;;;8.00;3.90;;;;;;;7.03;58.46;99783.89;78154;1300;3050026;-63
2024/04/06 02:11:06;;;;;;;10.40;4.20;;;;;;;6.96;58.75;99782.27;79602;1298;3013134;-62
2024/04/06 02:13:34;;;;;;;9.40;3.60;;;;;;;6.96;58.77;99780.33;79461;1298;3011659;-62
2024/04/06 02:16:03;;;;;;;8.70;4.10;;;;;;;6.93;59.09;99771.07;78356;1299;3051939;-62
2024/04/06 02:18:29;;;;;;;9.00;4.20;;;;;;;6.93;58.89;99766.70;79497;1300;3013660;-62
2024/04/06 02:20:56;;;;;;;10.90;3.90;;;;;;;6.93;59.05;99764.27;79558;1295;3011612;-62
2024/04/06 02:23:24;;;;;;;8.40;4.00;;;;;;;6.92;59.09;99761.88;78220;1300;3049750;-62
2024/04/06 02:25:51;;;;;;;7.80;3.40;;;;;;;6.97;59.01;99759.57;79330;1300;3013450;-62
2024/04/06 02:28:18;;;;;;;11.00;3.60;;;;;;;6.98;58.82;99757.79;79545;1295;3011971;-62
2024/04/06 02:30:46;;;;;;;7.90;3.90;;;;;;;6.95;58.87;99759.48;78004;1300;3053327;-62
2024/04/06 02:33:13;;;;;;;9.80;3.80;;;;;;;6.94;58.90;99755.17;79332;1300;3018267;-62
2024/04/06 02:35:40;;;;;;;8.30;4.00;;;;;;;7.01;58.77;99758.35;79331;1299;3013325;-61
2024/04/06 02:38:07;;;;;;;10.90;4.10;;;;;;;7.03;58.57;99759.16;78208;1300;3025939;-63
2024/04/06 02:40:34;;;;;;;10.80;4.40;;;;;;;6.96;58.88;99765.02;79456;1295;3018312;-62
2024/04/06 02:43:00;;;;;;;9.60;4.60;;;;;;;6.92;59.07;99765.85;79289;1298;3013506;-62
2024/04/06 02:45:28;;;;;;;9.60;4.10;;;;;;;6.97;58.70;99760.08;78222;1299;3028449;-62
2024/04/06 02:47:55;;;;;;;10.90;4.30;;;;;;;6.91;59.02;99757.39;79565;1294;3013428;-62
2024/04/06 02:50:22;;;;;;;8.50;4.60;;;;;;;6.89;59.24;99756.79;79375;1296;3012009;-62
2024/04/06 02:52:50;;;;;;;11.00;4.40;;;;;;;6.84;59.35;99753.82;78017;1300;3028687;-63
2024/04/06 02:55:16;;;;;;;7.90;4.00;;;;;;;6.85;59.34;99755.70;79441;1295;3013112;-62
2024/04/06 02:57:43;;;;;;;9.70;4.10;;;;;;;6.82;59.55;99752.16;79284;1295;3011921;-62
2024/04/06 03:00:12;;;;;;;8.90;4.20;;;;;;;6.90;59.18;99749.59;78265;1299;3025746;-62
2024/04/06 03:02:39;;;;;;;8.70;4.30;;;;;;;6.89;59.26;99748.22;79468;1298;3013056;-62
2024/04/06 03:05:06;;;;;;;10.60;3.80;;;;;;;6.90;59.06;99749.77;79318;1298;3011476;-62
2024/04/06 03:07:34;;;;;;;9.90;4.50;;;;;;;6.87;59.27;99746.94;78069;1298;3049637;-62
2024/04/06 03:10:00;;;;;;;9.40;4.20;;;;;;;6.88;59.36;99750.35;79310;1297;3012805;-62
2024/04/06 03:12:27;;;;;;;13.20;4.60;;;;;;;6.85;59.42;99746.11;79375;1296;3011870;-62
2024/04/06 03:14:55;;;;;;;8.40;4.00;;;;;;;6.80;59.67;99749.29;78125;1298;3025995;-62
2024/04/06 03:17:22;;;;;;;11.10;4.70;;;;;;;6.74;59.79;99747.63;79264;1299;3013683;-63
2024/04/06 03:19:48;;;;;;;8.80;4.40;;;;;;;6.73;59.56;99746.24;80106;1294;3011441;-63
2024/04/06 03:22:16;;;;;;;9.90;4.50;;;;;;;6.75;59.66;99749.15;78232;1300;3026712;-62
2024/04/06 03:24:43;;;;;;;8.80;4.30;;;;;;;6.75;59.71;99744.45;79385;1297;3013113;-62
2024/04/06 03:27:10;;;;;;;9.10;3.90;;;;;;;6.76;59.74;99749.45;79921;1300;3011653;-63
2024/04/06 03:29:38;;;;;;;11.60;4.60;;;;;;;6.75;59.80;99747.41;78829;1301;3026738;-63
2024/04/06 03:32:05;;;;;;;10.20;4.60;;;;;;;6.78;59.75;99742.05;80263;1300;3013335;-63
2024/04/06 03:34:31;;;;;;;9.60;4.60;;;;;;;6.74;59.86;99739.98;79544;1297;3013047;-59
2024/04/06 03:36:59;;;;;;;11.00;4.70;;;;;;;6.75;59.98;99742.02;78212;1300;3048305;-59
2024/04/06 03:39:26;;;;;;;8.90;4.70;;;;;;;6.75;59.99;99743.77;79307;1296;3018472;-60
2024/04/06 03:41:52;;;;;;;11.30;5.00;;;;;;;6.75;59.91;99746.38;79365;1299;3011382;-59
2024/04/06 03:44:20;;;;;;;16.00;5.10;;;;;;;6.77;60.02;99747.33;78278;1299;3027322;-59
2024/04/06 03:46:47;;;;;;;12.50;4.90;;;;;;;6.76;60.07;99748.95;79506;1300;3013147;-59
2024/04/06 03:49:14;;;;;;;11.50;4.90;;;;;;;6.67;60.38;99745.47;79333;1301;3011795;-60
2024/04/06 03:51:42;;;;;;;15.80;5.80;;;;;;;6.67;60.44;99748.79;78150;1300;3026685;-62
2024/04/06 03:54:08;;;;;;;14.10;6.50;;;;;;;6.68;60.51;99749.07;79219;1298;3019313;-59
2024/04/06 03:56:35;;;;;;;9.80;4.80;;;;;;;6.70;60.43;99748.82;79454;1296;3013329;-59
2024/04/06 03:59:03;;;;;;;8.50;4.60;;;;;;;6.67;60.64;99750.52;78057;1301;3028625;-59
2024/04/06 04:01:30;;;;;;;10.20;5.30;;;;;;;6.66;60.66;99753.34;79362;1295;3018769;-60
2024/04/06 04:03:56;;;;;;;13.60;5.00;;;;;;;6.54;61.03;99750.14;79780;1299;3011833;-60
2024/04/06 04:06:24;;;;;;;18.80;5.20;;;;;;;6.47;61.33;99750.28;78278;1294;3026164;-59
2024/04/06 04:08:51;;;;;;;9.80;4.90;;;;;;;6.42;61.54;99745.22;79627;1295;3013206;-58
2024/04/06 04:11:17;;;;;;;12.80;5.30;;;;;;;6.44;61.45;99746.70;79818;1300;3011493;-60
2024/04/06 04:13:45;;;;;;;11.60;5.10;;;;;;;6.45;61.51;99747.19;78361;1299;3026695;-60
2024/04/06 04:16:12;;;;;;;11.70;5.20;;;;;;;6.47;61.57;99746.97;79417;1299;3011604;-60
2024/04/06 04:18:38;;;;;;;15.00;5.50;;;;;;;6.49;61.59;99750.54;79405;1299;3012063;-60
2024/04/06 04:21:06;;;;;;;14.00;5.80;;;;;;;6.50;61.53;99748.21;78245;1300;3025883;-61
2024/04/06 04:23:33;;;;;;;14.80;5.90;;;;;;;6.51;61.75;99743.66;79900;1296;3013508;-60
2024/04/06 04:26:00;;;;;;;11.00;5.60;;;;;;;6.58;61.62;99748.45;79654;1295;3011621;-61
2024/04/06 04:28:28;;;;;;;11.70;5.40;;;;;;;6.59;61.72;99746.66;78047;1300;3027154;-60
2024/04/06 04:30:54;;;;;;;11.80;5.90;;;;;;;6.63;61.66;99741.09;79443;1301;3019408;-60
2024/04/06 04:33:21;;;;;;;15.00;6.10;;;;;;;6.66;61.54;99745.86;79252;1298;3013060;-58
2024/04/06 04:35:49;;;;;;;12.10;5.90;;;;;;;6.74;61.25;99739.96;78305;1298;3027250;-58
2024/04/06 04:38:16;;;;;;;13.70;6.10;;;;;;;6.74;61.58;99739.40;79938;1298;3013112;-59
2024/04/06 04:40:42;;;;;;;15.70;6.20;;;;;;;6.78;61.36;99742.75;79492;1300;3011902;-61
2024/04/06 04:43:10;;;;;;;17.00;6.40;;;;;;;6.84;61.18;99745.28;78690;1296;3027106;-60
2024/04/06 04:45:37;;;;;;;15.70;6.70;;;;;;;6.89;61.38;99743.00;79829;1297;3019186;-61
2024/04/06 04:48:04;;;;;;;13.20;6.70;;;;;;;6.98;60.93;99743.84;79716;1294;3011622;-62
2024/04/06 04:50:32;;;;;;;15.70;6.40;;;;;;;7.11;61.00;99740.71;78641;1295;3049284;-62
2024/04/06 04:52:59;;;;;;;13.90;6.50;;;;;;;7.18;60.87;99742.32;80098;1295;3017928;-63
2024/04/06 04:55:26;;;;;;;11.90;6.10;;;;;;;7.22;61.07;99737.30;79382;1300;3011749;-59
2024/04/06 04:57:54;;;;;;;14.90;6.80;;;;;;;7.24;61.37;99737.02;78299;1300;3025914;-62
2024/04/06 05:00:20;;;;;;;16.80;6.30;;;;;;;7.28;61.56;99738.79;79437;1295;3018471;-60
2024/04/06 05:02:47;;;;;;;10.30;6.50;;;;;;;7.25;61.46;99739.94;79190;1299;3011658;-59
2024/04/06 05:05:15;;;;;;;11.10;6.50;;;;;;;7.31;62.10;99738.98;78134;1300;3028448;-60
2024/04/06 05:07:41;;;;;;;14.20;6.60;;;;;;;7.45;61.79;99730.55;79234;1295;3013629;-60
2024/04/06 05:10:11;;;;;;;11.40;6.10;;;;;;;7.48;61.54;99730.95;79254;1300;3011359;-61
2024/04/06 05:12:39;;;;;;;10.90;6.30;;;;;;;7.56;61.22;99734.27;78112;1295;3051449;-61
2024/04/06 05:15:06;;;;;;;12.20;6.00;;;;;;;7.68;61.21;99732.66;79466;1295;3013340;-60
2024/04/06 05:17:36;;;;;;;10.10;6.10;;;;;;;7.75;60.58;99729.61;79264;1295;3013506;-61
2024/04/06 05:20:05;;;;;;;10.70;5.50;;;;;;;7.73;60.28;99732.30;78095;1295;3050405;-59
2024/04/06 05:22:32;;;;;;;11.20;5.40;;;;;;;7.88;60.49;99725.16;79543;1300;3013132;-61
2024/04/06 05:24:59;;;;;;;9.70;5.10;;;;;;;8.08;59.30;99727.58;79198;1296;3011891;-61
2024/04/06 05:27:28;;;;;;;10.40;5.00;;;;;;;8.21;58.40;99733.77;78241;1301;3052993;-60
2024/04/06 05:29:54;;;;;;;10.60;5.20;;;;;;;8.30;58.42;99737.20;79542;1295;3013507;-61
2024/04/06 05:32:21;;;;;;;13.40;6.40;;;;;;;8.36;58.32;99737.96;79428;1295;3011573;-58
2024/04/06 05:34:49;;;;;;;8.80;5.10;;;;;;;8.40;58.50;99730.95;78193;1300;3025631;-59
2024/04/06 05:37:15;;;;;;;11.40;5.30;;;;;;;8.52;58.21;99730.80;79330;1295;3020623;-61
2024/04/06 05:39:42;;;;;;;10.50;5.20;;;;;;;8.63;57.82;99732.54;79355;1299;3011485;-59
2024/04/06 05:42:10;;;;;;;15.00;5.90;;;;;;;8.66;58.05;99730.11;78468;1298;3025490;-59
2024/04/06 05:44:37;;;;;;;9.60;5.30;;;;;;;8.71;57.58;99727.77;80058;1295;3013080;-60
2024/04/06 05:47:04;;;;;;;9.90;4.70;;;;;;;8.68;57.00;99731.09;80215;1295;3013462;-61
2024/04/06 05:49:31;;;;;;;11.80;4.80;;;;;;;8.67;57.19;99727.10;78401;1297;3026244;-58
2024/04/06 05:51:58;;;;;;;17.20;4.60;;;;;;;8.76;57.26;99724.73;79407;1295;3013000;-59
2024/04/06 05:54:25;;;;;;;13.90;4.60;;;;;;;8.88;57.10;99728.16;79418;1301;3012080;-59
2024/04/06 05:56:53;;;;;;;8.40;4.50;;;;;;;9.08;56.70;99730.33;78114;1295;3025968;-58
2024/04/06 05:59:19;;;;;;;8.10;4.60;;;;;;;9.20;56.38;99730.45;79284;1294;3018496;-61
2024/04/06 06:01:46;;;;;;;14.00;4.90;;;;;;;9.31;56.07;99735.45;79333;1298;3013625;-61
2024/04/06 06:04:14;;;;;;;12.60;4.70;;;;;;;9.44;55.83;99733.43;78215;1295;3026494;-58
2024/04/06 06:06:40;;;;;;;16.10;5.10;;;;;;;9.54;55.12;99730.09;79320;1295;3018314;-61
2024/04/06 06:09:07;;;;;;;9.30;4.00;;;;;;;9.54;54.78;99735.14;79450;1295;3013493;-61
2024/04/06 06:11:35;;;;;;;11.10;4.40;;;;;;;9.67;54.33;99734.46;78278;1299;3026668;-58
2024/04/06 06:14:02;;;;;;;9.10;4.50;;;;;;;9.79;54.26;99738.21;79611;1301;3020656;-61
2024/04/06 06:16:29;;;;;;;9.80;4.40;;;;;;;9.85;53.85;99735.64;79388;1301;3011648;-60
2024/04/06 06:18:57;;;;;;;12.80;5.00;;;;;;;10.05;53.43;99729.51;78152;1298;3026788;-60
2024/04/06 06:21:23;;;;;;;9.60;4.40;;;;;;;10.12;52.87;99725.30;79324;1294;3020420;-60
2024/04/06 06:23:50;;;;;;;14.40;4.30;;;;;;;10.30;52.80;99722.02;79394;1297;3013414;-60
2024/04/06 06:26:18;;;;;;;8.10;3.80;;;;;;;10.39;51.32;99726.95;78076;1300;3026616;-60
2024/04/06 06:28:45;;;;;;;13.50;4.30;;;;;;;10.51;50.72;99726.86;79560;1295;3013443;-60
2024/04/06 06:31:11;;;;;;;10.60;4.00;;;;;;;10.48;51.08;99728.39;79393;1295;3011875;-61
2024/04/06 06:33:39;;;;;;;11.50;3.90;;;;;;;10.62;51.25;99723.39;78253;1300;3025839;-60
2024/04/06 06:36:07;;;;;;;9.80;4.00;;;;;;;10.88;50.61;99721.57;79429;1295;3018254;-59
2024/04/06 06:38:34;;;;;;;9.60;3.60;;;;;;;10.98;49.24;99725.91;79362;1296;3013606;-60
2024/04/06 06:41:02;;;;;;;8.80;3.50;;;;;;;11.10;49.18;99725.23;78023;1297;3052983;-59
2024/04/06 06:43:29;;;;;;;10.20;3.70;;;;;;;11.23;49.11;99721.99;79242;1298;3014521;-61
2024/04/06 06:45:56;;;;;;;8.30;3.30;;;;;;;11.25;49.02;99725.20;79272;1295;3013834;-62
2024/04/06 06:48:24;;;;;;;8.40;3.10;;;;;;;11.29;49.29;99722.73;78067;1300;3048021;-59
2024/04/06 06:50:50;;;;;;;7.90;3.30;;;;;;;11.43;49.05;99718.34;79346;1300;3013770;-66
2024/04/06 06:53:17;;;;;;;7.70;3.30;;;;;;;11.54;48.58;99718.75;79256;1299;3012974;-63
2024/04/06 06:55:45;;;;;;;10.90;4.70;;;;;;;11.68;48.13;99713.84;78177;1299;3027472;-60
2024/04/06 06:58:12;;;;;;;6.20;3.60;;;;;;;11.91;47.68;99714.39;79325;1299;3013782;-62
2024/04/06 07:00:44;;;;;;;8.10;3.60;;;;;;;12.03;47.69;99711.92;79496;1295;3013394;-61
2024/04/06 07:03:12;;;;;;;7.50;3.70;;;;;;;12.15;47.04;99711.75;78089;1295;3049158;-61
2024/04/06 07:05:39;;;;;;;12.50;3.90;;;;;;;12.28;46.65;99717.22;79493;1298;3012673;-62
2024/04/06 07:08:06;;;;;;;10.10;3.30;;;;;;;12.40;46.22;99714.84;79632;1294;3012086;-62
2024/04/06 07:10:38;;;;;;;13.80;3.70;;;;;;;12.41;45.04;99714.59;78353;1299;3026641;-61
2024/04/06 07:13:05;;;;;;;10.30;4.00;;;;;;;12.39;44.89;99717.75;79442;1300;3013471;-61
2024/04/06 07:15:33;;;;;;;6.70;3.50;;;;;;;12.37;45.39;99722.23;78755;1295;3026744;-63
2024/04/06 07:18:00;;;;;;;16.10;4.30;;;;;;;12.40;45.62;99718.04;80038;1295;3012888;-63
2024/04/06 07:20:26;;;;;;;16.20;4.40;;;;;;;12.50;45.91;99717.95;79448;1295;3011762;-61
2024/04/06 07:22:55;;;;;;;10.40;4.10;;;;;;;12.60;45.71;99721.13;78061;1300;3026188;-59
2024/04/06 07:25:21;;;;;;;14.70;4.70;;;;;;;12.70;46.03;99720.32;79371;1301;3013408;-59
2024/04/06 07:27:48;;;;;;;14.50;4.70;;;;;;;12.75;45.86;99718.92;79396;1297;3013765;-59
2024/04/06 07:30:16;;;;;;;15.10;4.60;;;;;;;12.83;46.27;99712.05;78176;1300;3028823;-61
2024/04/06 07:32:43;;;;;;;7.60;3.40;;;;;;;13.07;45.88;99706.06;79688;1295;3012678;-59
2024/04/06 07:35:09;;;;;;;10.80;3.80;;;;;;;13.24;45.51;99708.61;79776;1295;3011718;-61
2024/04/06 07:37:37;;;;;;;10.30;3.70;;;;;;;13.43;44.90;99699.29;78392;1301;3026200;-58
2024/04/06 07:40:05;;;;;;;10.30;3.50;;;;;;;13.50;44.49;99702.67;79412;1300;3013353;-62
2024/04/06 07:42:32;;;;;;;12.60;3.80;;;;;;;13.55;44.70;99694.45;79164;1295;3013615;-60
2024/04/06 07:45:00;;;;;;;13.90;4.10;;;;;;;13.58;44.74;99695.96;77999;1295;3052354;-58
2024/04/06 07:47:28;;;;;;;9.20;3.80;;;;;;;13.48;44.91;99696.30;79452;1295;3019592;-59
2024/04/06 07:49:55;;;;;;;10.00;3.60;;;;;;;13.69;44.37;99692.44;79491;1295;3011703;-56
2024/04/06 07:52:23;;;;;;;10.70;3.80;;;;;;;13.55;44.77;99693.54;78344;1299;3050478;-60
2024/04/06 07:54:50;;;;;;;8.30;3.40;;;;;;;13.72;44.66;99690.11;79256;1300;3013297;-60
2024/04/06 07:57:16;;;;;;;11.00;4.10;;;;;;;13.80;44.50;99698.14;79830;1297;3011878;-61
2024/04/06 07:59:44;;;;;;;8.10;3.70;;;;;;;13.89;44.11;99697.69;77968;1299;3029239;-61
2024/04/06 08:02:11;;;;;;;9.30;3.50;;;;;;;14.01;43.62;99687.70;79491;1295;3013470;-57
2024/04/06 08:04:38;;;;;;;10.50;2.90;;;;;;;14.12;43.53;99684.80;79156;1300;3011875;-56
2024/04/06 08:07:07;;;;;;;9.00;2.70;;;;;;;14.13;43.38;99681.40;78092;1298;3028981;-54
2024/04/06 08:09:36;;;;;;;7.60;3.10;;;;;;;14.23;43.17;99673.46;79298;1301;3014858;-57
2024/04/06 08:12:05;;;;;;;10.30;2.90;;;;;;;14.37;43.45;99670.29;78851;1295;3011892;-58
2024/04/06 08:14:32;;;;;;;7.80;2.60;;;;;;;14.58;43.10;99666.64;79274;1295;3013470;-58
2024/04/06 08:16:58;;;;;;;11.00;2.90;;;;;;;14.70;42.62;99665.98;79258;1301;3013096;-58
2024/04/06 08:19:26;;;;;;;7.40;3.00;;;;;;;14.73;42.72;99667.83;78166;1301;3028750;-60
2024/04/06 08:21:53;;;;;;;18.10;3.60;;;;;;;14.87;42.82;99660.27;79408;1298;3012971;-59
2024/04/06 08:24:19;;;;;;;10.00;2.70;;;;;;;15.15;42.47;99654.86;79288;1299;3013697;-57
2024/04/06 08:26:47;;;;;;;8.00;2.30;;;;;;;15.37;42.13;99651.74;78502;1299;3029050;-59
2024/04/06 08:29:14;;;;;;;10.70;2.80;;;;;;;15.50;41.63;99647.54;79986;1295;3018807;-57
2024/04/06 08:31:40;;;;;;;5.60;2.30;;;;;;;15.56;41.54;99650.05;79441;1299;3011805;-60
2024/04/06 08:34:08;;;;;;;8.80;2.50;;;;;;;15.71;40.83;99648.25;78053;1295;3025668;-59
2024/04/06 08:36:35;;;;;;;11.70;2.60;;;;;;;15.80;41.04;99641.33;79858;1295;3013674;-58
2024/04/06 08:39:03;;;;;;;12.30;2.70;;;;;;;15.97;40.79;99645.66;79609;1295;3011644;-59
2024/04/06 08:41:32;;;;;;;8.50;3.00;;;;;;;16.17;40.76;99639.27;78091;1300;3053114;-60
2024/04/06 08:44:00;;;;;;;9.70;2.40;;;;;;;16.35;40.41;99641.20;79259;1295;3013276;-59
2024/04/06 08:46:29;;;;;;;6.00;2.10;;;;;;;16.20;40.25;99640.42;79466;1295;3011606;-59
2024/04/06 08:48:57;;;;;;;8.50;2.30;;;;;;;16.36;40.31;99634.58;78020;1300;3050055;-59
2024/04/06 08:51:25;;;;;;;7.40;2.40;;;;;;;16.37;40.54;99638.50;79370;1295;3018323;-58
2024/04/06 08:53:52;;;;;;;7.10;2.20;;;;;;;16.39;40.47;99632.72;79341;1296;3011876;-59
2024/04/06 08:56:20;;;;;;;5.30;2.00;;;;;;;16.39;40.64;99631.66;78018;1299;3053401;-58
2024/04/06 08:58:47;;;;;;;6.40;2.00;;;;;;;16.56;40.39;99627.98;79337;1299;3012980;-59
2024/04/06 09:01:13;;;;;;;5.60;2.00;;;;;;;16.71;40.41;99627.02;79536;1298;3013928;-60
2024/04/06 09:03:41;;;;;;;6.30;2.30;;;;;;;16.90;40.24;99620.72;78036;1295;3026414;-58
2024/04/06 09:06:18;;;;;;;14.50;2.60;;;;;;;17.00;40.42;99627.88;79230;1295;3013449;-60
2024/04/06 09:08:46;;;;;;;6.80;1.90;;;;;;;16.88;40.20;99631.29;78114;1299;3052513;-61
2024/04/06 09:11:13;;;;;;;4.20;2.00;;;;;;;17.07;40.11;99620.34;79403;1301;3018346;-60
2024/04/06 09:13:42;;;;;;;9.60;2.50;;;;;;;17.25;39.73;99609.29;79347;1299;3012125;-61
2024/04/06 09:16:10;;;;;;;8.20;2.30;;;;;;;17.17;39.95;99612.21;78137;1296;3055739;-62
2024/04/06 09:18:38;;;;;;;8.20;2.40;;;;;;;17.26;39.73;99604.21;79219;1295;3013560;-62
2024/04/06 09:21:05;;;;;;;11.20;2.60;;;;;;;17.27;39.98;99599.90;79488;1296;3013220;-60
2024/04/06 09:23:34;;;;;;;12.70;2.60;;;;;;;17.48;39.85;99601.45;78066;1299;3053569;-61
2024/04/06 09:26:02;;;;;;;6.10;2.30;;;;;;;17.60;39.75;99600.70;79314;1299;3013786;-61
2024/04/06 09:28:29;;;;;;;9.10;2.00;;;;;;;17.57;40.12;99594.82;79273;1296;3011566;-61
2024/04/06 09:30:58;;;;;;;12.80;2.30;;;;;;;17.67;40.12;99593.90;78171;1299;3056305;-61
2024/04/06 09:33:26;;;;;;;9.40;2.50;;;;;;;17.73;40.01;99592.88;79438;1295;3013241;-61
2024/04/06 09:35:55;;;;;;;9.80;2.00;;;;;;;17.83;39.73;99585.80;78900;1295;3011753;-61
2024/04/06 09:38:21;;;;;;;5.10;1.90;;;;;;;17.99;39.15;99596.06;79567;1311;3011330;-62
2024/04/06 09:40:49;;;;;;;4.10;1.60;;;;;;;18.10;39.09;99584.81;79274;1299;3011989;-61
2024/04/06 09:43:16;;;;;;;6.90;2.20;;;;;;;18.22;38.94;99580.58;78118;1301;3028734;-61
2024/04/06 09:45:43;;;;;;;8.20;2.40;;;;;;;18.19;39.07;99578.34;79305;1295;3013446;-58
2024/04/06 09:48:10;;;;;;;8.10;2.30;;;;;;;18.46;38.92;99575.56;79364;1295;3013398;-62
2024/04/06 09:50:38;;;;;;;9.50;2.80;;;;;;;18.34;38.67;99576.69;78061;1295;3027125;-59
2024/04/06 09:53:06;;;;;;;7.40;1.90;;;;;;;18.45;39.15;99573.55;79288;1299;3013745;-60
2024/04/06 09:55:44;;;;;;;4.60;2.60;;;;;;;18.37;39.49;99571.41;79247;1300;3011587;-58
2024/04/06 09:58:12;;;;;;;9.70;3.00;;;;;;;18.44;39.85;99568.27;77968;1301;3068146;-59
2024/04/06 10:00:39;;;;;;;6.10;2.80;;;;;;;18.25;40.09;99563.98;79558;1295;3012882;-58
2024/04/06 10:03:05;;;;;;;7.90;2.90;;;;;;;18.14;40.69;99563.92;79179;1302;3013060;-58
2024/04/06 10:05:51;;;;;;;6.70;3.50;;;;;;;18.02;40.78;99565.15;78008;1300;3028515;-57
2024/04/06 10:08:19;;;;;;;11.80;3.90;;;;;;;17.97;41.18;99561.00;77986;1301;3050213;-60
2024/04/06 10:10:49;;;;;;;11.30;3.00;;;;;;;17.97;41.16;99553.76;79279;1300;3019426;-60
2024/04/06 10:13:21;;;;;;;7.80;3.50;;;;;;;17.86;41.82;99554.19;78689;1296;3011926;-60
2024/04/06 10:15:48;;;;;;;12.90;5.20;;;;;;;17.72;42.13;99554.92;79159;1301;3012671;-59
2024/04/06 10:18:16;;;;;;;15.20;6.60;;;;;;;17.60;42.42;99554.77;78140;1296;3026222;-59
2024/04/06 10:20:43;;;;;;;11.10;4.70;;;;;;;17.50;43.08;99546.40;79307;1295;3013929;-59
2024/04/06 10:23:12;;;;;;;6.70;3.50;;;;;;;17.74;42.77;99559.49;79346;1295;3011697;-59
2024/04/06 10:25:40;;;;;;;14.80;6.30;;;;;;;17.78;43.12;99545.50;78305;1301;3050165;-59
2024/04/06 10:28:08;;;;;;;7.10;3.80;;;;;;;17.80;43.09;99560.16;79478;1299;3013735;-59
2024/04/06 10:30:37;;;;;;;4.70;2.50;;;;;;;17.81;43.33;99558.48;79278;1295;3013115;-58
2024/04/06 10:33:06;;;;;;;5.90;2.00;;;;;;;17.88;43.10;99554.31;78267;1298;3052891;-57
2024/04/06 10:35:32;;;;;;;4.40;1.90;;;;;;;17.74;43.89;99551.88;79326;1294;3013658;-57
2024/04/06 10:37:59;;;;;;;4.80;2.00;;;;;;;17.65;43.89;99554.80;79254;1295;3012057;-58
2024/04/06 10:40:28;;;;;;;5.50;2.20;;;;;;;17.64;44.07;99543.89;78412;1295;3050750;-58
2024/04/06 10:42:55;;;;;;;5.50;2.60;;;;;;;17.95;43.88;99537.09;79603;1301;3013521;-58
2024/04/06 10:45:21;;;;;;;3.10;1.50;;;;;;;17.81;44.25;99541.14;79283;1295;3011531;-58
2024/04/06 10:47:49;;;;;;;2.80;1.70;;;;;;;17.87;44.31;99533.21;78169;1295;3051929;-59
2024/04/06 10:50:16;;;;;;;4.60;1.80;;;;;;;17.94;44.50;99533.66;79433;1295;3013288;-59
2024/04/06 10:52:43;;;;;;;2.50;1.60;;;;;;;18.14;43.64;99527.19;79201;1295;3011482;-59
2024/04/06 10:55:15;;;;;;;4.80;1.80;;;;;;;18.17;43.70;99525.05;78156;1301;3026799;-59
2024/04/06 10:57:43;;;;;;;4.90;2.20;;;;;;;18.25;43.50;99524.09;79346;1299;3011739;-59
2024/04/06 11:00:12;;;;;;;5.40;2.50;;;;;;;18.39;43.65;99516.80;78076;1301;3053319;-59
2024/04/06 11:02:39;;;;;;;7.40;1.90;;;;;;;18.52;43.33;99532.83;79436;1296;3012903;-58
2024/04/06 11:05:10;;;;;;;3.70;1.80;;;;;;;18.59;43.12;99530.20;79554;1295;3013541;-59
2024/04/06 11:07:38;;;;;;;5.60;2.00;;;;;;;18.74;42.69;99529.50;78193;1300;3049604;-60
2024/04/06 11:10:09;;;;;;;3.80;1.90;;;;;;;18.90;42.20;99518.77;79581;1295;3013379;-64
2024/04/06 11:12:41;;;;;;;6.90;2.10;;;;;;;18.94;41.74;99501.94;78189;1299;3052266;-59
2024/04/06 11:15:09;;;;;;;6.50;1.80;;;;;;;18.91;41.45;99515.52;79220;1295;3011955;-60
2024/04/06 11:17:37;;;;;;;4.30;1.90;;;;;;;18.84;41.36;99504.44;78141;1298;3068667;-60
2024/04/06 11:20:05;;;;;;;6.10;2.30;;;;;;;18.94;41.40;99500.52;79182;1295;3018787;-59